This is the latest recevied weather packets stored in our database for station/object N8ASV. If no packets are shown the sender has not sent any weather packets the latest 10 day(s).
| Time | Temp. | Humidity | Pressure | Rain* | Wind** | Luminosity | Snow |
|---|---|---|---|---|---|---|---|
| 1777418418 | 21.67° C | 61% | 1011 hPa | 0 mm | - | - | - |
| 1777414817 | 22.78° C | 62% | 1010 hPa | 0 mm | - | - | - |
| 1777412417 | 23.33° C | 56% | 1010.8 hPa | 0 mm | - | - | - |
| 1777407017 | 23.89° C | 59% | 1011.6 hPa | 0 mm | - | - | - |
| 1777396816 | 21.67° C | 70% | 1012.4 hPa | 0 mm | - | - | - |
| 1777393816 | 21.11° C | 77% | 1012.7 hPa | 0 mm | - | - | - |
| 1777392616 | 20° C | 79% | 1012.6 hPa | 0 mm | - | - | - |
| 1777392016 | 20° C | 77% | 1012.4 hPa | 0 mm | - | - | - |
| 1777391416 | 20.56° C | 77% | 1012.5 hPa | 0 mm | - | - | - |
| 1777389016 | 18.89° C | 83% | 1012.1 hPa | 0 mm | - | - | - |
| 1777387816 | 18.33° C | 86% | 1012.1 hPa | 0 mm | - | - | - |
| 1777380617 | 16.11° C | 93% | 1010.5 hPa | 1.02 mm | - | - | - |
| 1777379417 | 16.11° C | 93% | 1010.5 hPa | 1.02 mm | - | - | - |
| 1777378817 | 16.11° C | 93% | 1010.3 hPa | 1.27 mm | - | - | - |
| 1777376417 | 15.56° C | 92% | 1009.8 hPa | 1.52 mm | - | - | - |
| 1777375817 | 15.56° C | 92% | 1009.6 hPa | 1.52 mm | - | - | - |
| 1777372217 | 15° C | 92% | 1008.9 hPa | 2.03 mm | - | - | - |
| 1777367417 | 15° C | 92% | 1008.3 hPa | 2.29 mm | - | - | - |
| 1777366216 | 15° C | 93% | 1008 hPa | 2.79 mm | - | - | - |
| 1777362616 | 15° C | 92% | 1006.2 hPa | 3.81 mm | - | - | - |
| 1777359016 | 15° C | 93% | 1004.4 hPa | 5.08 mm | - | - | - |
| 1777358416 | 15° C | 93% | 1004.4 hPa | 5.33 mm | - | - | - |
| 1777357816 | 15° C | 92% | 1005.6 hPa | 5.59 mm | - | - | - |
| 1777351817 | 16.11° C | 90% | 1007.5 hPa | 4.57 mm | - | - | - |
| 1777350017 | 16.11° C | 90% | 1007.8 hPa | 3.81 mm | - | - | - |
* Rain latest hour (hover to see other rain measurements)
** Current wind speed in m/s (hover to see current wind gust speed)